Time;durP1;ratioP1;P1;durP2;ratioP2;P2;SDS_P1;SDS_P2;PMS_P1;PMS_P2;Temp;Humidity;BMP_temperature;BMP_pressure;BME280_temperature;BME280_humidity;BME280_pressure;Samples;Min_cycle;Max_cycle;Signal;HPM_P1;HPM_P2
2023/03/04 00:00:45;;;;;;;;;;;7.80;52.20;;;6.24;55.42;101491.59;12251875;19;19918;-85
2023/03/04 00:04:46;;;;;;;;;;;7.80;52.10;;;6.26;55.48;101502.78;12251508;19;19915;-85
2023/03/04 00:08:48;;;;;;;;;;;7.80;52.20;;;6.20;55.45;101488.22;12253194;19;19922;-85
2023/03/04 00:12:49;;;;;;;;;;;7.80;52.20;;;6.09;55.39;101463.44;12251358;19;20392;-85
2023/03/04 00:16:51;;;;;;;;;;;7.80;52.20;;;5.85;55.56;101420.78;12250656;19;20400;-85
2023/03/04 00:20:53;;;;;;;;;;;7.80;52.20;;;6.09;55.40;101464.28;12253084;19;19929;-85
2023/03/04 00:24:55;;;;;;;;;;;7.70;52.10;;;6.10;55.54;101466.00;12247351;19;20271;-85
2023/03/04 00:28:56;;;;;;;;;;;7.70;52.10;;;6.09;55.41;101459.09;12250894;19;19915;-85
2023/03/04 00:32:58;;;;;;;;;;;7.60;52.10;;;6.04;55.36;101454.94;12250649;19;19918;-85
2023/03/04 00:37:02;;;;;;;;;;;7.60;52.20;;;5.95;55.55;101433.53;12248691;19;20333;-85
2023/03/04 00:41:04;;;;;;;;;;;7.60;52.10;;;5.73;55.48;101412.44;12249541;19;20322;-85
2023/03/04 00:45:06;;;;;;;;;;;7.60;52.20;;;5.94;55.42;101449.09;12247700;19;19939;-85
2023/03/04 00:49:08;;;;;;;;;;;7.50;52.20;;;5.67;55.40;101404.81;12250588;19;19915;-85
2023/03/04 00:53:09;;;;;;;;;;;7.70;52.30;;;5.55;55.57;101390.41;12248431;19;20465;-85
2023/03/04 00:57:12;;;;;;;;;;;7.50;52.30;;;5.84;55.42;101439.84;12249002;19;19982;-85
2023/03/04 01:01:13;;;;;;;;;;;7.50;52.30;;;5.57;55.35;101372.25;12249354;19;19918;-85
2023/03/04 01:05:15;;;;;;;;;;;7.40;52.30;;;5.54;55.33;101377.50;12249184;19;19907;-85
2023/03/04 01:09:17;;;;;;;;;;;7.40;52.30;;;5.41;55.56;101355.38;12254374;19;19919;-85
2023/03/04 01:13:18;;;;;;;;;;;7.40;52.40;;;5.33;55.45;101358.13;12251624;19;19921;-85
2023/03/04 01:17:20;;;;;;;;;;;7.30;52.40;;;5.17;55.65;101331.72;12251620;19;19947;-85
2023/03/04 01:21:22;;;;;;;;;;;7.40;52.50;;;5.72;55.63;101422.81;12252870;19;19911;-85
2023/03/04 01:25:24;;;;;;;;;;;7.40;52.40;;;5.41;55.63;101350.19;12251292;19;19918;-86
2023/03/04 01:29:26;;;;;;;;;;;7.40;52.60;;;5.62;55.41;101374.72;12252182;19;19989;-85
2023/03/04 01:33:30;;;;;;;;;;;7.60;52.80;;;5.68;55.50;101384.94;12249411;19;19923;-85
2023/03/04 01:37:32;;;;;;;;;;;7.40;52.60;;;5.53;55.54;101355.06;12243914;19;19951;-84
2023/03/04 01:41:34;;;;;;;;;;;7.40;52.60;;;5.81;55.52;101401.03;12246370;19;19925;-85
2023/03/04 01:45:35;;;;;;;;;;;7.40;52.60;;;5.71;55.62;101374.50;12250651;19;19919;-85
2023/03/04 01:49:37;;;;;;;;;;;7.30;52.50;;;5.72;55.56;101384.81;12249797;19;19931;-85
2023/03/04 01:53:39;;;;;;;;;;;7.40;52.60;;;5.77;55.56;101389.88;12256444;19;19923;-85
2023/03/04 01:57:41;;;;;;;;;;;7.30;52.60;;;5.78;55.69;101396.78;12255741;19;20241;-85
2023/03/04 02:01:46;;;;;;;;;;;7.40;52.60;;;5.72;55.56;101368.41;12259242;19;19939;-85
2023/03/04 02:05:49;;;;;;;;;;;7.40;52.60;;;5.68;55.58;101357.28;12260048;19;20390;-85
2023/03/04 02:09:51;;;;;;;;;;;7.40;52.70;;;5.81;55.60;101377.72;12260529;19;19951;-85
2023/03/04 02:13:52;;;;;;;;;;;7.40;52.70;;;5.67;55.82;101342.63;12255817;19;19918;-85
2023/03/04 02:17:55;;;;;;;;;;;7.60;52.80;;;5.79;55.59;101350.97;12255675;19;19919;-85
2023/03/04 02:21:57;;;;;;;;;;;7.40;52.70;;;5.76;55.62;101337.22;12255122;19;19975;-85
2023/03/04 02:26:17;;;;;;;;;;;7.40;52.60;;;5.82;55.76;101335.34;12258675;19;19911;-85
2023/03/04 02:30:22;;;;;;;;;;;7.50;52.70;;;5.83;55.53;101326.69;12258507;19;19922;-85
2023/03/04 02:34:28;;;;;;;;;;;7.50;52.70;;;5.97;55.83;101345.38;12255146;19;20018;-85
2023/03/04 02:38:30;;;;;;;;;;;7.50;52.70;;;5.48;55.58;101259.34;12254075;19;19927;-85
2023/03/04 02:42:32;;;;;;;;;;;7.50;52.70;;;5.97;55.62;101327.22;12256247;19;19974;-85
2023/03/04 02:46:34;;;;;;;;;;;7.60;53.10;;;5.95;55.79;101316.03;12256441;19;19923;-85
2023/03/04 02:50:41;;;;;;;;;;;7.60;52.80;;;5.80;55.46;101291.31;12255800;19;20344;-85
2023/03/04 02:54:43;;;;;;;;;;;7.60;52.70;;;5.75;55.69;101270.72;12251643;19;19914;-85
2023/03/04 02:58:45;;;;;;;;;;;7.60;52.70;;;6.12;55.67;101321.59;12256700;19;19922;-85
2023/03/04 03:02:47;;;;;;;;;;;7.70;52.80;;;6.05;55.86;101301.94;12253560;19;19919;-85
2023/03/04 03:06:49;;;;;;;;;;;7.70;52.80;;;6.18;55.78;101312.81;12254469;19;20381;-85
2023/03/04 03:10:50;;;;;;;;;;;7.70;52.80;;;6.07;55.63;101286.31;12255006;19;20149;-85
2023/03/04 03:14:52;;;;;;;;;;;7.70;52.80;;;5.94;55.67;101262.47;12250951;19;19951;-85
2023/03/04 03:18:55;;;;;;;;;;;7.80;52.90;;;6.08;55.86;101273.34;12253227;19;19954;-85
2023/03/04 03:22:59;;;;;;;;;;;7.80;52.80;;;6.24;55.84;101296.22;12250095;19;19915;-85
2023/03/04 03:27:00;;;;;;;;;;;7.80;52.90;;;6.16;55.64;101278.31;12251977;19;19965;-85
2023/03/04 03:31:02;;;;;;;;;;;7.90;52.90;;;6.28;55.71;101293.50;12250772;19;19911;-85
2023/03/04 03:35:04;;;;;;;;;;;7.90;52.90;;;6.31;55.82;101288.22;12247538;19;20250;-85
2023/03/04 03:39:05;;;;;;;;;;;7.90;52.90;;;6.25;55.71;101264.22;12249957;19;19927;-85
2023/03/04 03:43:07;;;;;;;;;;;7.90;53.00;;;6.23;55.87;101264.25;12249829;19;19919;-85
2023/03/04 03:47:09;;;;;;;;;;;7.90;52.90;;;6.22;55.76;101257.38;12252073;19;19915;-85
2023/03/04 03:51:11;;;;;;;;;;;7.90;52.90;;;6.40;55.82;101277.63;12251077;19;19918;-85
2023/03/04 03:55:12;;;;;;;;;;;8.00;53.00;;;6.38;55.84;101261.22;12247626;19;19906;-85
2023/03/04 03:59:14;;;;;;;;;;;8.00;52.90;;;6.39;55.86;101265.50;12252717;19;19919;-85
2023/03/04 04:03:16;;;;;;;;;;;8.00;52.90;;;6.30;55.85;101250.22;12250375;19;19915;-85
2023/03/04 04:07:17;;;;;;;;;;;8.00;52.90;;;6.45;55.96;101267.06;12250299;19;19918;-85
2023/03/04 04:11:19;;;;;;;;;;;8.00;52.90;;;6.24;55.79;101223.59;12252363;19;19914;-85
2023/03/04 04:15:21;;;;;;;;;;;8.10;52.90;;;6.45;55.90;101259.28;12243393;19;19923;-85
2023/03/04 04:19:22;;;;;;;;;;;8.00;52.90;;;6.14;55.75;101197.97;12251343;19;19954;-85
2023/03/04 04:23:24;;;;;;;;;;;8.10;52.90;;;6.46;55.76;101258.41;12249324;19;20344;-85
2023/03/04 04:27:25;;;;;;;;;;;8.00;52.90;;;6.50;55.90;101251.38;12249505;19;20257;-85
2023/03/04 04:31:27;;;;;;;;;;;8.00;53.00;;;6.50;55.82;101246.19;12249979;19;19947;-87
2023/03/04 04:35:33;;;;;;;;;;;8.10;53.00;;;6.16;55.66;101191.00;12248853;19;19918;-85
2023/03/04 04:39:35;;;;;;;;;;;8.30;53.00;;;6.42;55.73;101223.06;12250216;19;19935;-85
2023/03/04 04:43:37;;;;;;;;;;;8.10;53.00;;;6.06;55.81;101165.38;12248680;19;20420;-85
2023/03/04 04:47:38;;;;;;;;;;;8.10;53.00;;;6.26;55.69;101188.13;12248543;19;19922;-85
2023/03/04 04:51:40;;;;;;;;;;;8.10;53.00;;;6.57;55.73;101234.75;12246927;19;19932;-85
2023/03/04 04:55:41;;;;;;;;;;;8.10;53.00;;;6.60;55.72;101237.25;12246410;19;20342;-85
2023/03/04 04:59:43;;;;;;;;;;;8.20;53.00;;;6.68;55.80;101239.63;12250488;19;19994;-85
2023/03/04 05:03:45;;;;;;;;;;;8.20;53.00;;;6.58;55.92;101224.31;12245241;19;19939;-85
2023/03/04 05:07:47;;;;;;;;;;;8.20;53.00;;;6.64;55.88;101231.94;12246540;19;19982;-85
2023/03/04 05:11:49;;;;;;;;;;;8.40;53.10;;;6.67;55.82;101227.50;12246614;19;19923;-85
2023/03/04 05:15:53;;;;;;;;;;;8.20;53.00;;;6.59;55.94;101215.66;12246756;19;19918;-85
2023/03/04 05:19:55;;;;;;;;;;;8.30;53.00;;;6.58;55.93;101210.50;12246687;19;19918;-85
2023/03/04 05:23:57;;;;;;;;;;;8.30;53.00;;;6.61;55.84;101207.78;12244879;19;19922;-85
2023/03/04 05:28:00;;;;;;;;;;;8.30;53.00;;;6.74;55.91;101229.88;12256393;19;19942;-85
2023/03/04 05:32:02;;;;;;;;;;;8.30;53.00;;;6.54;55.85;101193.34;12258332;19;19907;-85
2023/03/04 05:36:05;;;;;;;;;;;8.30;53.10;;;6.74;55.77;101224.69;12256079;19;20329;-85
2023/03/04 05:55:13;;;;;;;;;;;8.40;53.20;;;6.70;55.78;101211.84;12251023;19;19915;-85
2023/03/04 05:59:19;;;;;;;;;;;8.40;53.20;;;6.82;55.94;101224.44;12257543;19;19918;-85
2023/03/04 06:03:21;;;;;;;;;;;8.40;53.20;;;6.86;55.75;101224.31;12255985;19;19974;-85
2023/03/04 06:07:23;;;;;;;;;;;8.50;53.20;;;6.71;55.82;101201.44;12259153;19;19926;-86
2023/03/04 06:11:24;;;;;;;;;;;8.40;53.20;;;6.64;55.76;101172.25;12257720;19;19918;-85
2023/03/04 06:15:25;;;;;;;;;;;8.70;53.40;;;6.84;55.97;101207.09;12251594;19;19925;-85
2023/03/04 06:19:27;;;;;;;;;;;8.50;53.30;;;6.49;55.86;101145.94;12256978;19;19919;-85
2023/03/04 06:23:29;;;;;;;;;;;8.50;53.70;;;6.96;55.77;101219.66;12255540;19;20356;-85
2023/03/04 06:27:31;;;;;;;;;;;8.60;53.40;;;6.95;55.85;101220.56;12258030;19;19922;-85
2023/03/04 06:31:33;;;;;;;;;;;8.50;53.40;;;6.92;56.03;101212.88;12255936;19;20381;-85
2023/03/04 06:35:34;;;;;;;;;;;8.60;53.40;;;6.89;56.05;101204.34;12257414;19;19978;-85
2023/03/04 06:54:47;;;;;;;;;;;8.70;53.80;;;7.11;56.13;101233.06;12249419;19;20337;-85
2023/03/04 06:58:48;;;;;;;;;;;8.70;53.60;;;7.12;55.97;101229.56;12252641;19;19926;-84
2023/03/04 07:02:50;;;;;;;;;;;8.70;53.50;;;7.17;56.00;101232.84;12251099;19;19944;-85
2023/03/04 07:06:52;;;;;;;;;;;8.70;53.70;;;7.19;56.06;101241.44;12254624;19;19915;-85
2023/03/04 07:10:54;;;;;;;;;;;8.70;53.70;;;7.01;55.99;101206.53;12252439;19;19986;-86
2023/03/04 07:14:55;;;;;;;;;;;8.80;53.70;;;7.25;56.01;101236.91;12252066;19;19911;-86
2023/03/04 07:18:57;;;;;;;;;;;8.80;53.80;;;7.19;55.97;101215.47;12257178;19;20262;-85
2023/03/04 07:22:58;;;;;;;;;;;8.80;54.00;;;7.28;56.00;101235.94;12252362;19;20275;-85
2023/03/04 07:27:00;;;;;;;;;;;8.80;53.90;;;7.27;56.07;101229.06;12253997;19;19979;-85
2023/03/04 07:31:18;;;;;;;;;;;8.80;53.90;;;7.30;56.17;101245.38;12247662;19;19927;-85
2023/03/04 07:35:19;;;;;;;;;;;8.90;53.90;;;7.18;56.04;101213.75;12250964;19;19918;-86
2023/03/04 07:39:20;;;;;;;;;;;8.80;53.90;;;7.26;56.03;101229.94;12253162;19;20354;-85
2023/03/04 07:43:22;;;;;;;;;;;8.90;53.90;;;7.25;56.08;101223.91;12250962;19;19926;-86
2023/03/04 07:47:23;;;;;;;;;;;8.90;53.90;;;7.34;56.01;101235.72;12251706;19;19919;-87
2023/03/04 07:51:26;;;;;;;;;;;8.90;53.90;;;7.37;55.95;101245.16;12249674;19;19925;-85
2023/03/04 07:55:29;;;;;;;;;;;8.90;54.00;;;7.44;56.24;101238.88;12250467;19;19914;-85
2023/03/04 07:59:31;;;;;;;;;;;9.00;54.00;;;7.43;56.13;101234.59;12253557;19;19929;-85
2023/03/04 08:03:32;;;;;;;;;;;8.90;54.00;;;7.40;56.25;101224.28;12250211;19;19921;-85
2023/03/04 08:07:34;;;;;;;;;;;9.20;54.20;;;7.51;56.06;101243.81;12252498;19;19918;-85
2023/03/04 08:11:36;;;;;;;;;;;9.00;54.10;;;7.44;56.05;101213.75;12250677;19;19922;-85
2023/03/04 08:15:40;;;;;;;;;;;9.00;54.30;;;7.42;56.22;101215.53;12250137;19;19929;-85
2023/03/04 08:19:42;;;;;;;;;;;9.10;54.50;;;7.51;56.28;101220.44;12252342;19;19910;-84
2023/03/04 08:23:44;;;;;;;;;;;9.10;54.40;;;7.62;56.11;101229.63;12247213;19;19921;-85
2023/03/04 08:27:46;;;;;;;;;;;9.10;54.50;;;7.38;56.22;101185.38;12249865;19;19911;-84
2023/03/04 08:31:50;;;;;;;;;;;9.10;54.40;;;7.59;56.36;101217.56;12250771;19;19974;-84
2023/03/04 08:35:52;;;;;;;;;;;9.20;54.40;;;7.64;56.45;101218.25;12246800;19;19919;-86
2023/03/04 08:39:54;;;;;;;;;;;9.20;54.50;;;7.73;56.19;101217.09;12251976;19;20318;-84
2023/03/04 08:43:56;;;;;;;;;;;9.20;54.50;;;7.55;56.42;101179.59;12245512;19;20345;-84
2023/03/04 08:47:57;;;;;;;;;;;9.20;54.40;;;7.71;56.32;101198.09;12250067;19;20000;-85
2023/03/04 08:52:00;;;;;;;;;;;9.30;54.60;;;7.78;56.30;101198.69;12248111;19;19931;-85
2023/03/04 08:56:02;;;;;;;;;;;9.40;54.50;;;7.82;56.29;101193.34;12253360;19;19935;-85
2023/03/04 09:00:04;;;;;;;;;;;9.40;54.50;;;7.87;56.45;101209.63;12251452;19;19925;-84
2023/03/04 09:04:05;;;;;;;;;;;9.40;54.40;;;7.83;56.30;101184.66;12248838;19;19922;-86
2023/03/04 09:08:07;;;;;;;;;;;9.40;54.40;;;7.87;56.30;101191.44;12248150;19;20249;-86
2023/03/04 09:12:08;;;;;;;;;;;9.50;54.50;;;7.69;56.30;101155.69;12250090;19;19978;-86
2023/03/04 09:16:12;;;;;;;;;;;9.50;54.40;;;7.96;56.25;101198.88;12243197;19;19919;-84
2023/03/04 09:20:13;;;;;;;;;;;9.50;54.40;;;7.99;56.40;101213.53;12249199;19;20329;-85
2023/03/04 09:24:15;;;;;;;;;;;9.50;54.40;;;7.69;56.49;101147.91;12252651;19;20253;-84
2023/03/04 09:28:17;;;;;;;;;;;9.50;54.50;;;8.04;56.28;101208.16;12253175;19;19944;-84
2023/03/04 09:32:19;;;;;;;;;;;9.70;54.40;;;8.03;56.48;101199.53;12251130;19;20255;-84
2023/03/04 09:36:21;;;;;;;;;;;9.50;54.30;;;8.01;56.34;101195.28;12251690;19;20024;-84
2023/03/04 09:40:27;;;;;;;;;;;9.60;54.50;;;8.07;56.47;101203.69;12250201;19;20260;-84
2023/03/04 09:44:38;;;;;;;;;;;9.60;54.30;;;8.16;56.43;101211.16;12245317;19;19911;-84
2023/03/04 09:48:48;;;;;;;;;;;9.70;54.30;;;8.06;56.45;101190.75;12248290;19;19922;-85
2023/03/04 09:53:01;;;;;;;;;;;9.70;54.10;;;8.20;56.33;101219.69;12245370;19;19922;-85
2023/03/04 09:57:27;;;;;;;;;;;9.80;54.10;;;8.16;56.52;101200.75;12250308;19;20598;-84
2023/03/04 10:01:44;;;;;;;;;;;9.70;53.80;;;8.27;56.46;101218.56;12251473;19;19914;-84
2023/03/04 10:05:49;;;;;;;;;;;9.80;53.80;;;8.32;56.35;101219.25;12251913;19;19922;-84
2023/03/04 10:09:56;;;;;;;;;;;9.80;53.70;;;8.22;56.29;101186.66;12252026;19;19978;-84
2023/03/04 10:14:24;;;;;;;;;;;9.90;53.60;;;8.39;56.54;101207.72;12250683;19;19978;-84
2023/03/04 10:18:48;;;;;;;;;;;9.90;53.60;;;7.94;56.32;101137.47;12258880;19;19922;-84
2023/03/04 10:22:57;;;;;;;;;;;9.90;53.60;;;8.35;56.31;101195.72;12263327;19;19915;-85
2023/03/04 10:27:04;;;;;;;;;;;10.00;53.50;;;8.44;56.24;101201.50;12269081;19;19970;-84
2023/03/04 10:31:12;;;;;;;;;;;10.00;53.50;;;8.45;56.21;101206.63;12267916;19;20353;-85
2023/03/04 10:35:13;;;;;;;;;;;10.20;53.50;;;8.52;56.48;101196.84;12263847;19;19922;-86
2023/03/04 10:39:21;;;;;;;;;;;10.10;53.40;;;8.45;56.38;101191.00;12269957;19;19970;-85
2023/03/04 10:43:23;;;;;;;;;;;10.10;53.40;;;8.59;56.38;101193.94;12265092;19;19922;-85
2023/03/04 10:47:26;;;;;;;;;;;10.20;53.30;;;8.60;56.27;101184.38;12269738;19;19918;-84
2023/03/04 10:51:29;;;;;;;;;;;10.20;53.30;;;8.71;56.37;101203.00;12268105;19;19978;-85
2023/03/04 10:55:43;;;;;;;;;;;10.20;53.40;;;8.80;56.49;101205.28;12262572;19;19919;-83
2023/03/04 10:59:46;;;;;;;;;;;10.30;53.40;;;8.84;56.20;101199.00;12262414;19;19944;-84
2023/03/04 11:03:48;;;;;;;;;;;10.30;53.30;;;8.74;56.31;101174.25;12262777;19;19948;-84
2023/03/04 11:07:55;;;;;;;;;;;10.40;53.30;;;8.72;56.42;101173.47;12259372;19;19926;-83
2023/03/04 11:12:01;;;;;;;;;;;10.40;53.20;;;8.89;56.29;101200.59;12257086;19;19919;-88
2023/03/04 11:16:22;;;;;;;;;;;10.40;53.20;;;8.53;56.19;101146.47;12252493;19;20325;-87
2023/03/04 11:20:47;;;;;;;;;;;10.50;53.20;;;8.89;56.36;101187.56;12257451;19;19922;-86
2023/03/04 11:25:02;;;;;;;;;;;10.50;53.20;;;8.64;56.38;101159.91;12252106;19;20361;-87
2023/03/04 11:29:41;;;;;;;;;;;10.50;53.10;;;8.77;56.26;101181.94;12258298;19;19926;-87
2023/03/04 11:33:48;;;;;;;;;;;10.50;52.90;;;8.79;56.30;101192.28;12260552;19;19923;-84
2023/03/04 11:38:05;;;;;;;;;;;10.50;52.90;;;8.92;56.38;101216.09;12263454;19;19918;-85
2023/03/04 11:42:22;;;;;;;;;;;10.50;52.80;;;8.86;56.25;101207.63;12267704;19;19918;-84
2023/03/04 11:46:32;;;;;;;;;;;10.50;52.80;;;8.94;56.28;101212.53;12254796;19;19952;-84
2023/03/04 11:50:52;;;;;;;;;;;10.40;52.60;;;8.95;56.28;101215.97;12262605;19;19947;-84
2023/03/04 11:55:17;;;;;;;;;;;10.50;52.80;;;8.98;56.38;101210.63;12260068;19;19927;-85
2023/03/04 11:59:37;;;;;;;;;;;10.50;52.70;;;9.00;56.13;101206.22;12257236;19;19936;-84
2023/03/04 12:03:41;;;;;;;;;;;10.50;52.70;;;9.02;56.21;101207.84;12256876;19;19919;-84
2023/03/04 12:07:52;;;;;;;;;;;10.50;52.60;;;9.03;56.29;101211.28;12259595;19;20286;-85
2023/03/04 12:12:08;;;;;;;;;;;10.50;52.50;;;9.04;56.17;101199.94;12261781;19;19979;-85
2023/03/04 12:16:30;;;;;;;;;;;10.50;52.60;;;9.08;56.23;101204.13;12253054;19;19922;-86
2023/03/04 12:21:04;;;;;;;;;;;10.60;52.60;;;9.01;56.17;101184.44;12263651;19;19919;-84
2023/03/04 12:25:05;;;;;;;;;;;10.60;52.00;;;9.04;56.09;101185.16;12255506;19;19931;-84
2023/03/04 12:29:37;;;;;;;;;;;10.60;52.20;;;9.02;56.00;101176.59;12269172;19;19918;-86
2023/03/04 12:33:54;;;;;;;;;;;10.60;52.00;;;9.15;56.17;101202.94;12274258;19;20397;-84
2023/03/04 12:38:14;;;;;;;;;;;10.70;52.10;;;9.09;56.01;101187.59;12266847;19;19918;-84
2023/03/04 12:42:27;;;;;;;;;;;10.70;52.00;;;9.16;56.04;101201.22;12261315;19;19918;-87
2023/03/04 12:46:47;;;;;;;;;;;10.70;52.00;;;9.12;56.12;101203.09;12263078;19;19922;-86
2023/03/04 12:51:01;;;;;;;;;;;10.70;51.90;;;9.14;56.04;101200.44;12254139;19;19939;-89
2023/03/04 12:55:08;;;;;;;;;;;10.70;52.10;;;9.07;56.01;101189.41;12249894;19;19907;-88
2023/03/04 12:59:16;;;;;;;;;;;10.70;52.30;;;9.12;55.93;101192.66;12245219;19;20335;-87
2023/03/04 13:03:52;;;;;;;;;;;10.70;52.00;;;9.17;55.92;101198.53;12248300;19;19914;-89
2023/03/04 13:08:08;;;;;;;;;;;10.70;51.70;;;9.18;56.05;101200.25;12250793;19;19922;-88
2023/03/04 13:12:21;;;;;;;;;;;10.70;51.90;;;9.14;56.06;101206.47;12249599;19;19923;-88
2023/03/04 13:16:31;;;;;;;;;;;10.70;51.20;;;9.12;55.91;101200.47;12248433;19;19931;-88
2023/03/04 13:20:37;;;;;;;;;;;10.70;51.60;;;8.88;55.88;101163.25;12249450;19;19919;-88
2023/03/04 13:24:49;;;;;;;;;;;10.70;51.20;;;9.00;55.96;101175.78;12249929;19;20361;-87
2023/03/04 13:29:30;;;;;;;;;;;10.60;51.40;;;9.00;55.82;101182.78;12251521;19;19907;-88
2023/03/04 13:33:34;;;;;;;;;;;10.60;51.40;;;9.13;55.88;101209.13;12249090;19;19926;-88
2023/03/04 13:37:36;;;;;;;;;;;10.60;51.30;;;9.09;55.89;101192.78;12249788;19;19931;-88
2023/03/04 13:41:48;;;;;;;;;;;10.60;51.30;;;9.15;55.77;101202.94;12250449;19;19922;-88
2023/03/04 13:45:50;;;;;;;;;;;10.60;51.50;;;9.05;55.78;101192.09;12248886;19;19915;-88
2023/03/04 13:50:30;;;;;;;;;;;10.70;50.50;;;9.16;55.76;101209.03;12259872;19;19922;-88
2023/03/04 13:54:32;;;;;;;;;;;10.70;50.80;;;9.04;55.62;101179.09;12257038;19;19943;-88
2023/03/04 13:58:34;;;;;;;;;;;10.70;50.40;;;9.01;55.60;101184.44;12259693;19;19925;-88
2023/03/04 14:02:35;;;;;;;;;;;10.60;49.70;;;9.09;55.70;101204.06;12257370;19;19986;-89
2023/03/04 14:06:41;;;;;;;;;;;10.70;49.00;;;9.03;55.76;101182.63;12259882;19;19922;-88
2023/03/04 14:10:43;;;;;;;;;;;10.60;50.00;;;9.08;55.60;101191.94;12260256;19;20247;-88
2023/03/04 14:14:47;;;;;;;;;;;10.60;48.80;;;9.14;55.55;101206.47;12255258;19;20285;-88
2023/03/04 14:19:01;;;;;;;;;;;10.60;50.00;;;8.99;55.51;101183.66;12256477;19;20363;-88
2023/03/04 14:23:23;;;;;;;;;;;10.60;50.40;;;8.82;55.66;101153.94;12258076;19;19919;-88
2023/03/04 14:27:25;;;;;;;;;;;10.60;50.20;;;8.85;55.63;101156.41;12260039;19;19914;-88
2023/03/04 14:31:28;;;;;;;;;;;10.60;50.20;;;9.01;55.47;101176.63;12256724;19;19922;-88
2023/03/04 14:35:31;;;;;;;;;;;10.60;50.60;;;9.06;55.55;101193.78;12256772;19;19945;-90
2023/03/04 14:39:34;;;;;;;;;;;10.60;50.70;;;9.14;55.32;101200.44;12258322;19;19927;-88
2023/03/04 14:44:08;;;;;;;;;;;10.60;50.80;;;9.12;55.32;101202.25;12256537;19;19906;-88
2023/03/04 14:48:17;;;;;;;;;;;10.60;50.60;;;8.97;55.33;101177.69;12257280;19;19922;-88
2023/03/04 14:52:36;;;;;;;;;;;10.60;50.50;;;9.07;55.50;101197.22;12255622;19;19982;-88
2023/03/04 14:56:42;;;;;;;;;;;10.60;50.60;;;8.88;55.40;101170.25;12258276;19;19929;-88
2023/03/04 15:00:45;;;;;;;;;;;10.60;50.80;;;8.99;55.25;101187.13;12257513;19;19922;-88
2023/03/04 15:04:47;;;;;;;;;;;10.50;50.60;;;8.90;55.33;101178.84;12252482;19;19930;-88
2023/03/04 15:09:02;;;;;;;;;;;10.70;50.90;;;8.68;55.43;101145.88;12255437;19;19918;-88
2023/03/04 15:13:07;;;;;;;;;;;10.50;50.60;;;8.72;55.36;101157.88;12258444;19;19914;-88
2023/03/04 15:17:23;;;;;;;;;;;10.50;50.30;;;8.85;55.13;101179.84;12261547;19;19919;-88
2023/03/04 15:21:36;;;;;;;;;;;10.40;50.40;;;8.93;55.09;101196.94;12260532;19;19906;-88
2023/03/04 15:25:38;;;;;;;;;;;10.40;50.70;;;8.81;55.24;101180.91;12261842;19;19962;-88
2023/03/04 15:29:40;;;;;;;;;;;10.40;50.70;;;8.78;55.17;101172.38;12258200;19;19944;-88
2023/03/04 15:33:41;;;;;;;;;;;10.30;50.70;;;8.77;55.14;101176.72;12253660;19;19982;-88
2023/03/04 15:37:44;;;;;;;;;;;10.20;50.90;;;8.71;55.19;101169.16;12253445;19;19953;-88
2023/03/04 15:41:47;;;;;;;;;;;10.30;50.80;;;8.63;55.28;101155.59;12256596;19;19919;-88
2023/03/04 15:45:50;;;;;;;;;;;10.20;50.90;;;8.71;55.06;101171.78;12258402;19;20282;-88
2023/03/04 15:49:52;;;;;;;;;;;10.20;51.00;;;8.73;55.23;101174.31;12258069;19;19939;-88
2023/03/04 15:53:56;;;;;;;;;;;10.20;51.00;;;8.63;55.13;101166.03;12257739;19;20324;-88
2023/03/04 15:57:59;;;;;;;;;;;10.30;51.10;;;8.66;55.21;101165.91;12254869;19;19911;-88
2023/03/04 16:02:00;;;;;;;;;;;10.20;51.00;;;8.68;55.04;101166.69;12257867;19;19914;-88
2023/03/04 16:06:02;;;;;;;;;;;10.20;50.90;;;8.74;55.05;101176.00;12260264;19;19918;-88
2023/03/04 16:10:14;;;;;;;;;;;10.20;50.90;;;8.59;55.16;101154.06;12257169;19;19922;-88
2023/03/04 16:14:16;;;;;;;;;;;10.20;50.90;;;8.71;55.19;101182.19;12252783;19;19914;-89
2023/03/04 16:18:17;;;;;;;;;;;10.20;50.90;;;8.73;55.17;101185.59;12253302;19;19915;-86
2023/03/04 16:22:24;;;;;;;;;;;10.20;50.90;;;8.66;54.99;101168.50;12256215;19;19914;-88
2023/03/04 16:26:27;;;;;;;;;;;10.20;50.70;;;8.72;55.14;101183.91;12253922;19;20325;-89
2023/03/04 16:30:29;;;;;;;;;;;10.30;50.80;;;8.61;54.89;101173.03;12254571;19;19907;-89
2023/03/04 16:34:30;;;;;;;;;;;10.10;50.70;;;8.60;54.97;101171.34;12251658;19;19926;-88
2023/03/04 16:38:32;;;;;;;;;;;10.10;50.80;;;8.40;55.11;101144.38;12249435;19;19914;-88
2023/03/04 16:42:33;;;;;;;;;;;10.10;50.70;;;8.49;55.03;101163.13;12248054;19;19919;-89
2023/03/04 16:46:35;;;;;;;;;;;10.10;50.60;;;8.58;54.79;101180.97;12250378;19;19907;-89
2023/03/04 16:50:37;;;;;;;;;;;10.10;50.60;;;8.52;54.82;101176.84;12252556;19;19918;-88
2023/03/04 16:54:39;;;;;;;;;;;10.10;50.70;;;8.41;55.07;101159.06;12246078;19;19927;-88
2023/03/04 16:58:41;;;;;;;;;;;10.10;50.60;;;8.58;54.79;101196.59;12243792;19;20345;-89
2023/03/04 17:02:44;;;;;;;;;;;10.00;50.60;;;8.53;54.81;101185.50;12248483;19;19931;-88
2023/03/04 17:06:45;;;;;;;;;;;10.00;50.60;;;8.57;54.77;101197.50;12251389;19;19917;-88
2023/03/04 17:10:47;;;;;;;;;;;10.00;50.60;;;8.31;54.93;101157.69;12249967;19;19944;-88
2023/03/04 17:14:49;;;;;;;;;;;10.00;50.60;;;8.50;54.75;101198.66;12247130;19;19922;-87
2023/03/04 17:18:50;;;;;;;;;;;10.00;50.70;;;8.36;54.70;101179.19;12247434;19;20264;-87
2023/03/04 17:22:52;;;;;;;;;;;9.90;50.60;;;8.36;54.72;101188.75;12260321;19;19978;-88
2023/03/04 17:26:54;;;;;;;;;;;9.90;50.60;;;8.36;54.82;101197.41;12271080;19;19926;-87
2023/03/04 17:30:56;;;;;;;;;;;9.90;50.50;;;8.19;54.55;101174.63;12272469;19;20333;-87
2023/03/04 17:34:58;;;;;;;;;;;9.90;50.60;;;8.43;54.61;101210.22;12270018;19;19915;-87
2023/03/04 17:39:01;;;;;;;;;;;9.90;50.20;;;8.44;54.80;101224.91;12268269;19;19949;-87
2023/03/04 17:43:06;;;;;;;;;;;9.90;50.30;;;8.35;55.05;101218.28;12270928;19;20309;-87
2023/03/04 17:47:08;;;;;;;;;;;9.90;50.00;;;8.25;54.77;101201.31;12272128;19;19918;-88
2023/03/04 17:51:10;;;;;;;;;;;9.90;50.40;;;8.34;54.69;101226.97;12273362;19;19946;-87
2023/03/04 17:55:11;;;;;;;;;;;9.90;50.50;;;8.38;54.65;101228.56;12269811;19;19922;-88
2023/03/04 17:59:15;;;;;;;;;;;9.80;50.50;;;8.24;54.72;101205.69;12267332;19;19939;-87
2023/03/04 18:03:17;;;;;;;;;;;9.80;50.40;;;8.33;54.65;101218.34;12269574;19;19910;-87
2023/03/04 18:07:18;;;;;;;;;;;9.80;50.50;;;8.32;54.82;101221.00;12270265;19;19939;-88
2023/03/04 18:11:21;;;;;;;;;;;9.80;50.60;;;8.26;54.70;101201.25;12271109;19;19918;-87
2023/03/04 18:15:23;;;;;;;;;;;9.80;50.50;;;8.31;54.55;101214.94;12265505;19;19922;-87
2023/03/04 18:19:24;;;;;;;;;;;9.80;50.40;;;8.25;54.67;101209.13;12269278;19;19972;-87
2023/03/04 18:23:27;;;;;;;;;;;9.80;50.50;;;8.25;54.67;101209.13;12267482;19;19919;-87
2023/03/04 18:27:28;;;;;;;;;;;9.80;50.40;;;8.33;54.76;101222.69;12270439;19;19922;-87
2023/03/04 18:31:33;;;;;;;;;;;9.80;50.40;;;8.33;54.65;101222.69;12268747;19;19924;-88
2023/03/04 18:35:34;;;;;;;;;;;9.80;50.50;;;8.31;54.64;101219.28;12257828;19;19911;-87
2023/03/04 18:39:36;;;;;;;;;;;9.80;50.60;;;8.34;54.58;101220.00;12257283;19;19911;-87
2023/03/04 18:43:38;;;;;;;;;;;9.80;50.60;;;8.20;54.62;101196.28;12254373;19;20257;-87
2023/03/04 18:47:42;;;;;;;;;;;9.70;50.50;;;8.02;54.73;101168.34;12258075;19;19915;-87
2023/03/04 18:51:44;;;;;;;;;;;9.80;50.50;;;8.24;54.48;101204.84;12256552;19;20684;-87
2023/03/04 18:55:45;;;;;;;;;;;9.80;50.50;;;8.10;54.48;101182.78;12252691;19;19929;-88
2023/03/04 19:00:05;;;;;;;;;;;9.80;50.60;;;8.30;54.50;101215.84;12258021;19;20590;-87
2023/03/04 19:04:08;;;;;;;;;;;9.80;51.00;;;8.35;54.55;101221.72;12251574;19;20336;-87
2023/03/04 19:08:11;;;;;;;;;;;9.80;50.60;;;8.16;54.57;101192.13;12251493;19;19943;-87
2023/03/04 19:12:13;;;;;;;;;;;9.80;50.40;;;8.17;54.49;101196.41;12240836;19;19922;-87